This is the latest recevied weather packets stored in our database for station/object 9M2ABD-1. If no packets are shown the sender has not sent any weather packets the latest 10 day(s).
| Time | Temp. | Humidity | Pressure | Rain* | Wind** | Luminosity | Snow |
|---|---|---|---|---|---|---|---|
| 1788494728 | 32.22° C | 61% | 1013.1 hPa | - | - | - | - |
| 1788493528 | 32.22° C | 62% | 1013.2 hPa | - | - | - | - |
| 1788492328 | 32.22° C | 65% | 1013.4 hPa | - | - | - | - |
| 1788491128 | 32.22° C | 64% | 1013.6 hPa | - | - | - | - |
| 1788489928 | 31.67° C | 65% | 1013.8 hPa | - | - | - | - |
| 1788488728 | 31.67° C | 65% | 1013.8 hPa | - | - | - | - |
| 1788487528 | 31.11° C | 66% | 1013.9 hPa | - | - | - | - |
| 1788486328 | 31.11° C | 68% | 1014 hPa | - | - | - | - |
| 1788485128 | 31.11° C | 68% | 1014 hPa | - | - | - | - |
| 1788483927 | 30.56° C | 69% | 1013.9 hPa | - | - | - | - |
| 1788482727 | 30.56° C | 69% | 1013.7 hPa | - | - | - | - |
| 1788481527 | 30.56° C | 69% | 1013.6 hPa | - | - | - | - |
| 1788480327 | 30° C | 69% | 1013.4 hPa | - | - | - | - |
| 1788479127 | 30.56° C | 68% | 1013.2 hPa | - | - | - | - |
| 1788477927 | 30.56° C | 67% | 1012.8 hPa | - | - | - | - |
| 1788476727 | 30.56° C | 65% | 1012.4 hPa | - | - | - | - |
| 1788475527 | 31.11° C | 65% | 1012.2 hPa | - | - | - | - |
| 1788474327 | 31.11° C | 64% | 1011.9 hPa | - | - | - | - |
| 1788473127 | 31.11° C | 63% | 1011.6 hPa | - | - | - | - |
| 1788471927 | 31.11° C | 62% | 1011.4 hPa | - | - | - | - |
| 1788470732 | 31.11° C | 62% | 1011.3 hPa | - | - | - | - |
| 1788469531 | 31.11° C | 62% | 1011.1 hPa | - | - | - | - |
| 1788468331 | 31.11° C | 62% | 1011 hPa | - | - | - | - |
| 1788467131 | 31.11° C | 62% | 1010.8 hPa | - | - | - | - |
| 1788465931 | 31.11° C | 61% | 1010.9 hPa | - | - | - | - |
* Rain since midnight (hover to see other rain measurements)
** Current wind speed in m/s (hover to see current wind gust speed)